Time;durP1;ratioP1;P1;durP2;ratioP2;P2;SDS_P1;SDS_P2;PMS_P1;PMS_P2;Temp;Humidity;BMP_temperature;BMP_pressure;BME280_temperature;BME280_humidity;BME280_pressure;Samples;Min_cycle;Max_cycle;Signal;HPM_P1;HPM_P2
2023/12/13 00:01:20;;;;;;;18.97;10.67;;;;;;;;;;5063305;28;20729;-79
2023/12/13 00:03:48;;;;;;;12.90;9.47;;;;;;;;;;5063243;28;20913;-79
2023/12/13 00:06:15;;;;;;;15.13;9.50;;;;;;;;;;5063035;28;20495;-78
2023/12/13 00:08:43;;;;;;;15.20;9.37;;;;;;;;;;5063418;28;20512;-81
2023/12/13 00:11:10;;;;;;;14.90;10.20;;;;;;;;;;5065213;28;20464;-80
2023/12/13 00:13:38;;;;;;;12.60;9.50;;;;;;;;;;5070204;28;20459;-80
2023/12/13 00:16:08;;;;;;;13.77;8.83;;;;;;;;;;5070482;28;20462;-80
2023/12/13 00:18:36;;;;;;;16.60;10.67;;;;;;;;;;5070127;28;20557;-81
2023/12/13 00:21:03;;;;;;;20.93;10.27;;;;;;;;;;5067410;28;20470;-79
2023/12/13 00:23:31;;;;;;;17.30;10.13;;;;;;;;;;5062879;28;20463;-80
2023/12/13 00:25:58;;;;;;;18.90;10.10;;;;;;;;;;5064079;28;20780;-80
2023/12/13 00:28:25;;;;;;;17.80;10.53;;;;;;;;;;5064923;28;20842;-80
2023/12/13 00:30:53;;;;;;;15.23;9.50;;;;;;;;;;5067446;28;20461;-79
2023/12/13 00:33:22;;;;;;;14.70;9.90;;;;;;;;;;5070335;28;20813;-80
2023/12/13 00:35:50;;;;;;;21.23;10.57;;;;;;;;;;5071076;28;20482;-79
2023/12/13 00:38:17;;;;;;;17.20;10.40;;;;;;;;;;5070886;28;20454;-80
2023/12/13 00:40:45;;;;;;;15.57;10.77;;;;;;;;;;5069694;28;20467;-80
2023/12/13 00:43:12;;;;;;;14.53;9.77;;;;;;;;;;5069814;28;20512;-80
2023/12/13 00:45:40;;;;;;;13.83;9.27;;;;;;;;;;5070494;28;20514;-80
2023/12/13 00:48:08;;;;;;;15.13;9.63;;;;;;;;;;5066684;28;20451;-80
2023/12/13 00:50:37;;;;;;;20.57;10.10;;;;;;;;;;5070303;28;20435;-80
2023/12/13 00:53:05;;;;;;;14.70;9.23;;;;;;;;;;5066870;28;20503;-79
2023/12/13 00:55:33;;;;;;;13.33;9.17;;;;;;;;;;5071516;28;20580;-79
2023/12/13 00:58:00;;;;;;;15.53;10.33;;;;;;;;;;5066208;28;20940;-80
2023/12/13 01:00:28;;;;;;;14.53;10.00;;;;;;;;;;5063547;28;20484;-80
2023/12/13 01:02:55;;;;;;;17.30;9.60;;;;;;;;;;5065040;28;20741;-79
2023/12/13 01:05:23;;;;;;;14.60;9.83;;;;;;;;;;5064903;28;20435;-80
2023/12/13 01:07:52;;;;;;;16.67;8.60;;;;;;;;;;5064361;28;20510;-79
2023/12/13 01:10:20;;;;;;;16.87;9.90;;;;;;;;;;5063403;28;20456;-79
2023/12/13 01:12:47;;;;;;;19.17;9.70;;;;;;;;;;5068391;28;20456;-79
2023/12/13 01:15:14;;;;;;;16.53;9.50;;;;;;;;;;5069948;28;20459;-78
2023/12/13 01:17:42;;;;;;;15.13;9.47;;;;;;;;;;5070012;28;20512;-80
2023/12/13 01:20:11;;;;;;;15.93;9.43;;;;;;;;;;5069911;28;20581;-79
2023/12/13 01:22:38;;;;;;;15.10;9.23;;;;;;;;;;5067493;28;20453;-80
2023/12/13 01:25:08;;;;;;;13.37;9.23;;;;;;;;;;5072982;28;20526;-79
2023/12/13 01:27:36;;;;;;;15.47;9.23;;;;;;;;;;5072049;28;20466;-81
2023/12/13 01:30:09;;;;;;;16.30;9.60;;;;;;;;;;5073434;28;21218;-80
2023/12/13 01:32:37;;;;;;;13.47;8.20;;;;;;;;;;5070868;28;20552;-78
2023/12/13 01:35:05;;;;;;;15.27;8.53;;;;;;;;;;5072189;28;20448;-79
2023/12/13 01:37:32;;;;;;;16.00;9.00;;;;;;;;;;5071612;28;20456;-80
2023/12/13 01:40:00;;;;;;;16.87;8.60;;;;;;;;;;5072436;28;20495;-80
2023/12/13 01:42:29;;;;;;;13.87;8.17;;;;;;;;;;5065321;28;20466;-81
2023/12/13 01:44:57;;;;;;;13.20;7.00;;;;;;;;;;5066600;28;20443;-81
2023/12/13 01:47:24;;;;;;;15.33;7.87;;;;;;;;;;5065163;28;20513;-80
2023/12/13 01:49:52;;;;;;;13.80;7.67;;;;;;;;;;5064534;28;20441;-81
2023/12/13 01:52:19;;;;;;;12.60;7.10;;;;;;;;;;5071651;28;20527;-81
2023/12/13 01:54:47;;;;;;;17.10;7.10;;;;;;;;;;5071367;28;20452;-79
2023/12/13 01:57:17;;;;;;;11.43;6.97;;;;;;;;;;5072836;28;20543;-80
2023/12/13 01:59:46;;;;;;;10.30;6.40;;;;;;;;;;5073024;28;20505;-79
2023/12/13 02:02:14;;;;;;;11.33;7.47;;;;;;;;;;5072687;28;20448;-80
2023/12/13 02:04:42;;;;;;;15.07;8.13;;;;;;;;;;5072725;28;20448;-79
2023/12/13 02:07:10;;;;;;;10.57;6.50;;;;;;;;;;5072785;28;20459;-80
2023/12/13 02:09:37;;;;;;;10.70;6.67;;;;;;;;;;5071626;28;20465;-77
2023/12/13 02:12:05;;;;;;;13.20;7.10;;;;;;;;;;5066172;28;20815;-80
2023/12/13 02:14:33;;;;;;;13.00;6.13;;;;;;;;;;5063739;28;20460;-80
2023/12/13 02:17:02;;;;;;;9.63;6.40;;;;;;;;;;5062932;28;20870;-81
2023/12/13 02:19:29;;;;;;;11.53;6.10;;;;;;;;;;5065145;28;20492;-79
2023/12/13 02:21:57;;;;;;;9.90;7.10;;;;;;;;;;5065237;28;20512;-79
2023/12/13 02:24:26;;;;;;;12.73;7.30;;;;;;;;;;5064609;28;20477;-79
2023/12/13 02:26:54;;;;;;;9.90;6.20;;;;;;;;;;5066513;28;20480;-81
2023/12/13 02:29:22;;;;;;;10.10;5.63;;;;;;;;;;5065921;28;20457;-81
2023/12/13 02:31:50;;;;;;;11.33;7.50;;;;;;;;;;5072787;28;20457;-81
2023/12/13 02:34:17;;;;;;;12.63;6.40;;;;;;;;;;5072299;28;20470;-80
2023/12/13 02:36:46;;;;;;;10.53;6.43;;;;;;;;;;5070146;28;20463;-80
2023/12/13 02:39:14;;;;;;;9.50;5.53;;;;;;;;;;5072040;28;20511;-78
2023/12/13 02:41:42;;;;;;;9.57;5.90;;;;;;;;;;5073308;28;20444;-80
2023/12/13 02:44:10;;;;;;;10.03;5.87;;;;;;;;;;5073592;28;20465;-79
2023/12/13 02:46:37;;;;;;;12.60;6.07;;;;;;;;;;5066189;28;20537;-81
2023/12/13 02:49:05;;;;;;;9.57;5.93;;;;;;;;;;5063777;28;20889;-81
2023/12/13 02:51:32;;;;;;;8.70;5.50;;;;;;;;;;5070954;28;20438;-80
2023/12/13 02:54:00;;;;;;;12.17;6.93;;;;;;;;;;5073353;28;20454;-79
2023/12/13 02:56:27;;;;;;;7.90;4.90;;;;;;;;;;5073176;28;20448;-81
2023/12/13 02:58:56;;;;;;;11.33;6.20;;;;;;;;;;5073085;28;20459;-80
2023/12/13 03:01:23;;;;;;;8.73;6.57;;;;;;;;;;5073565;28;20905;-81
2023/12/13 03:03:51;;;;;;;9.47;5.93;;;;;;;;;;5065511;28;20521;-80
2023/12/13 03:06:18;;;;;;;10.00;5.90;;;;;;;;;;5065200;28;20490;-81
2023/12/13 03:08:45;;;;;;;11.47;6.40;;;;;;;;;;5065481;28;20459;-80
2023/12/13 03:11:13;;;;;;;9.33;6.13;;;;;;;;;;5068733;28;20474;-79
2023/12/13 03:13:40;;;;;;;9.53;5.20;;;;;;;;;;5073112;28;20456;-80
2023/12/13 03:16:09;;;;;;;9.67;5.57;;;;;;;;;;5071611;28;20889;-79
2023/12/13 03:18:37;;;;;;;8.73;6.20;;;;;;;;;;5070542;28;20463;-80
2023/12/13 03:21:04;;;;;;;8.37;4.63;;;;;;;;;;5071897;28;20489;-79
2023/12/13 03:23:32;;;;;;;8.87;5.40;;;;;;;;;;5068896;28;20476;-79
2023/12/13 03:25:59;;;;;;;9.17;5.67;;;;;;;;;;5070738;28;20484;-78
2023/12/13 03:28:27;;;;;;;7.60;4.77;;;;;;;;;;5071400;28;20448;-80
2023/12/13 03:30:54;;;;;;;8.07;5.20;;;;;;;;;;5068738;28;20459;-80
2023/12/13 03:33:23;;;;;;;8.27;5.50;;;;;;;;;;5065100;28;20538;-80
2023/12/13 03:35:51;;;;;;;8.90;5.27;;;;;;;;;;5064125;28;20456;-81
2023/12/13 03:38:18;;;;;;;8.20;5.37;;;;;;;;;;5065095;28;20479;-80
2023/12/13 03:40:46;;;;;;;8.37;5.00;;;;;;;;;;5063532;28;20550;-81
2023/12/13 03:43:13;;;;;;;6.97;4.37;;;;;;;;;;5065510;28;20927;-79
2023/12/13 03:45:40;;;;;;;8.50;4.77;;;;;;;;;;5065807;28;20453;-81
2023/12/13 03:48:08;;;;;;;7.50;5.20;;;;;;;;;;5065263;28;20486;-81
2023/12/13 03:50:37;;;;;;;8.20;5.00;;;;;;;;;;5069659;28;20440;-78
2023/12/13 03:53:04;;;;;;;6.80;4.47;;;;;;;;;;5072516;28;20454;-79
2023/12/13 03:55:31;;;;;;;7.93;5.20;;;;;;;;;;5072971;28;20444;-79
2023/12/13 03:57:59;;;;;;;8.10;4.50;;;;;;;;;;5073210;28;20459;-80
2023/12/13 04:00:32;;;;;;;9.30;5.43;;;;;;;;;;5072182;28;20502;-79
2023/12/13 04:03:00;;;;;;;6.97;4.60;;;;;;;;;;5070743;28;20510;-80
2023/12/13 04:05:28;;;;;;;8.23;4.80;;;;;;;;;;5070254;28;20468;-80
2023/12/13 04:07:56;;;;;;;9.23;4.43;;;;;;;;;;5070839;28;20447;-80
2023/12/13 04:10:30;;;;;;;9.80;5.50;;;;;;;;;;5070801;28;20456;-80
2023/12/13 04:12:57;;;;;;;9.10;5.77;;;;;;;;;;5070972;28;20449;-80
2023/12/13 04:15:25;;;;;;;7.70;5.30;;;;;;;;;;5070485;28;20519;-79
2023/12/13 04:17:52;;;;;;;12.57;5.80;;;;;;;;;;5069592;28;20460;-78
2023/12/13 04:20:20;;;;;;;6.80;5.20;;;;;;;;;;5069891;28;20488;-79
2023/12/13 04:22:47;;;;;;;8.87;5.20;;;;;;;;;;5059961;28;20484;-80
2023/12/13 04:25:16;;;;;;;8.37;5.23;;;;;;;;;;5061502;28;20457;-80
2023/12/13 04:27:47;;;;;;;7.53;5.77;;;;;;;;;;5058626;28;20462;-80
2023/12/13 04:30:17;;;;;;;7.60;5.77;;;;;;;;;;5061184;28;20507;-79
2023/12/13 04:32:45;;;;;;;10.13;7.60;;;;;;;;;;5065300;28;20466;-80
2023/12/13 04:35:12;;;;;;;10.80;6.30;;;;;;;;;;5059902;28;20448;-79
2023/12/13 04:37:40;;;;;;;9.23;5.53;;;;;;;;;;5059858;28;20431;-79
2023/12/13 04:40:08;;;;;;;12.30;7.60;;;;;;;;;;5058285;28;20616;-80
2023/12/13 04:42:37;;;;;;;10.07;6.60;;;;;;;;;;5060832;28;20434;-79
2023/12/13 04:45:09;;;;;;;12.20;7.60;;;;;;;;;;5057048;28;20487;-80
2023/12/13 04:47:37;;;;;;;11.80;6.90;;;;;;;;;;5066387;28;20541;-79
2023/12/13 04:50:15;;;;;;;10.90;6.70;;;;;;;;;;5066331;28;20443;-79
2023/12/13 04:52:42;;;;;;;11.60;8.30;;;;;;;;;;5063490;28;20453;-80
2023/12/13 04:55:10;;;;;;;12.10;7.80;;;;;;;;;;5061692;28;20450;-79
2023/12/13 04:57:39;;;;;;;14.83;9.23;;;;;;;;;;5061176;28;20541;-80
2023/12/13 05:00:08;;;;;;;14.37;9.03;;;;;;;;;;5064274;28;20492;-81
2023/12/13 05:02:36;;;;;;;12.73;7.73;;;;;;;;;;5064813;28;20470;-79
2023/12/13 05:05:03;;;;;;;12.40;8.13;;;;;;;;;;5067637;28;20632;-79
2023/12/13 05:07:32;;;;;;;12.70;8.03;;;;;;;;;;5064831;28;20454;-81
2023/12/13 05:10:00;;;;;;;11.80;8.17;;;;;;;;;;5068107;28;20593;-80
2023/12/13 05:12:27;;;;;;;11.43;8.20;;;;;;;;;;5075320;28;20519;-80
2023/12/13 05:14:56;;;;;;;13.80;7.83;;;;;;;;;;5074014;28;20434;-80
2023/12/13 05:17:23;;;;;;;15.00;9.77;;;;;;;;;;5071339;28;20484;-79
2023/12/13 05:19:51;;;;;;;14.13;9.00;;;;;;;;;;5074913;28;20472;-79
2023/12/13 05:22:18;;;;;;;12.50;8.60;;;;;;;;;;5065442;28;20450;-79
2023/12/13 05:24:46;;;;;;;15.80;9.20;;;;;;;;;;5065756;28;20712;-80
2023/12/13 05:27:13;;;;;;;11.97;7.90;;;;;;;;;;5064191;28;20859;-81
2023/12/13 05:29:43;;;;;;;15.67;9.87;;;;;;;;;;5064195;28;20483;-79
2023/12/13 05:32:12;;;;;;;12.60;9.30;;;;;;;;;;5066114;28;20470;-79
2023/12/13 05:34:39;;;;;;;14.23;10.27;;;;;;;;;;5062919;28;20456;-79
2023/12/13 05:37:07;;;;;;;15.00;10.63;;;;;;;;;;5063874;28;20462;-80
2023/12/13 05:39:34;;;;;;;16.67;10.13;;;;;;;;;;5062967;28;20483;-80
2023/12/13 05:42:02;;;;;;;13.30;9.77;;;;;;;;;;5060948;28;20603;-78
2023/12/13 05:44:30;;;;;;;16.93;10.83;;;;;;;;;;5062064;28;20458;-78
2023/12/13 05:46:57;;;;;;;14.43;9.60;;;;;;;;;;5068497;28;20489;-79
2023/12/13 05:49:26;;;;;;;12.13;9.43;;;;;;;;;;5072267;28;20488;-79
2023/12/13 05:51:57;;;;;;;14.30;10.00;;;;;;;;;;5065032;28;20457;-79
2023/12/13 05:54:25;;;;;;;18.10;9.77;;;;;;;;;;5063341;28;20666;-80
2023/12/13 05:56:53;;;;;;;16.90;10.10;;;;;;;;;;5069964;28;20467;-79
2023/12/13 05:59:20;;;;;;;17.13;10.93;;;;;;;;;;5072766;28;20459;-80
2023/12/13 06:01:48;;;;;;;15.60;10.67;;;;;;;;;;5069016;28;20487;-80
2023/12/13 06:04:15;;;;;;;16.93;10.27;;;;;;;;;;5067698;28;20459;-79
2023/12/13 06:06:46;;;;;;;16.80;9.40;;;;;;;;;;5063517;28;20447;-81
2023/12/13 06:09:14;;;;;;;15.80;9.47;;;;;;;;;;5066017;28;20617;-80
2023/12/13 06:11:41;;;;;;;14.00;9.97;;;;;;;;;;5070037;28;20519;-80
2023/12/13 06:14:09;;;;;;;12.50;10.07;;;;;;;;;;5068424;28;20460;-80
2023/12/13 06:16:36;;;;;;;15.37;9.30;;;;;;;;;;5068486;28;20463;-80
2023/12/13 06:19:04;;;;;;;12.50;9.53;;;;;;;;;;5068712;28;20443;-80
2023/12/13 06:21:33;;;;;;;13.73;9.27;;;;;;;;;;5068042;28;20553;-80
2023/12/13 06:24:02;;;;;;;14.23;9.43;;;;;;;;;;5065577;28;20460;-79
2023/12/13 06:26:30;;;;;;;15.17;8.90;;;;;;;;;;5067709;28;20487;-80
2023/12/13 06:28:59;;;;;;;15.20;10.20;;;;;;;;;;5066218;28;20705;-80
2023/12/13 06:31:27;;;;;;;14.53;8.90;;;;;;;;;;5067953;28;20463;-79
2023/12/13 06:33:54;;;;;;;12.93;9.73;;;;;;;;;;5066476;28;20512;-79
2023/12/13 06:36:22;;;;;;;13.40;8.47;;;;;;;;;;5065972;28;20435;-79
2023/12/13 06:38:49;;;;;;;11.40;8.77;;;;;;;;;;5070346;28;20530;-80
2023/12/13 06:41:18;;;;;;;10.30;7.90;;;;;;;;;;5067794;28;20498;-80
2023/12/13 06:43:46;;;;;;;12.53;9.10;;;;;;;;;;5057704;28;20501;-79
2023/12/13 06:46:14;;;;;;;11.73;8.17;;;;;;;;;;5061325;28;20624;-79
2023/12/13 06:48:42;;;;;;;12.27;8.43;;;;;;;;;;5065776;28;20519;-79
2023/12/13 06:51:09;;;;;;;12.83;8.47;;;;;;;;;;5060130;28;20709;-79
2023/12/13 06:53:37;;;;;;;12.07;8.60;;;;;;;;;;5051790;28;20469;-78
2023/12/13 06:56:05;;;;;;;11.30;8.13;;;;;;;;;;5055585;28;20495;-79
2023/12/13 06:58:34;;;;;;;13.77;7.70;;;;;;;;;;5056294;28;20906;-78
2023/12/13 07:01:02;;;;;;;13.63;9.60;;;;;;;;;;5057172;28;20523;-79
2023/12/13 07:03:29;;;;;;;12.23;8.60;;;;;;;;;;5061356;28;20521;-79
2023/12/13 07:05:57;;;;;;;14.87;9.17;;;;;;;;;;5064295;28;20458;-80
2023/12/13 07:08:24;;;;;;;15.60;10.87;;;;;;;;;;5064290;28;20467;-79
2023/12/13 07:10:52;;;;;;;16.13;11.57;;;;;;;;;;5060911;28;20506;-78
2023/12/13 07:13:19;;;;;;;13.83;11.30;;;;;;;;;;5063610;28;20516;-80
2023/12/13 07:15:48;;;;;;;13.23;9.30;;;;;;;;;;5062577;28;20716;-79
2023/12/13 07:18:16;;;;;;;12.40;8.73;;;;;;;;;;5059745;28;20533;-81
2023/12/13 07:20:43;;;;;;;12.00;9.30;;;;;;;;;;5062135;28;20517;-79
2023/12/13 07:23:11;;;;;;;15.17;9.33;;;;;;;;;;5056534;28;20446;-80
2023/12/13 07:25:39;;;;;;;11.30;7.80;;;;;;;;;;5060749;28;20538;-79
2023/12/13 07:28:08;;;;;;;11.30;7.13;;;;;;;;;;5056485;28;20462;-80
2023/12/13 07:30:36;;;;;;;13.03;8.60;;;;;;;;;;5059750;28;20445;-79
2023/12/13 07:33:05;;;;;;;9.97;7.43;;;;;;;;;;5060955;28;20471;-79
2023/12/13 07:35:32;;;;;;;11.13;8.13;;;;;;;;;;5062707;28;20511;-79
2023/12/13 07:38:00;;;;;;;10.47;7.27;;;;;;;;;;5059491;28;20487;-80
2023/12/13 07:40:28;;;;;;;11.23;7.47;;;;;;;;;;5061569;28;20520;-79
2023/12/13 07:42:55;;;;;;;10.67;6.80;;;;;;;;;;5057651;28;20512;-79
2023/12/13 07:45:23;;;;;;;10.13;6.87;;;;;;;;;;5063724;28;20456;-79
2023/12/13 07:47:51;;;;;;;9.17;6.30;;;;;;;;;;5063923;28;20485;-78
2023/12/13 07:50:20;;;;;;;10.30;6.80;;;;;;;;;;5063834;28;20444;-80
2023/12/13 07:52:48;;;;;;;10.70;7.50;;;;;;;;;;5065675;28;20869;-79
2023/12/13 07:55:19;;;;;;;10.73;6.43;;;;;;;;;;5070903;28;20457;-79
2023/12/13 07:57:48;;;;;;;9.40;6.53;;;;;;;;;;5069795;28;20452;-79
2023/12/13 08:00:20;;;;;;;8.83;5.87;;;;;;;;;;5071420;28;20452;-80
2023/12/13 08:02:55;;;;;;;10.17;6.47;;;;;;;;;;5066136;28;20459;-79
2023/12/13 08:05:37;;;;;;;7.50;5.60;;;;;;;;;;5069219;28;20473;-80
2023/12/13 08:08:06;;;;;;;7.80;5.77;;;;;;;;;;5065367;28;20511;-79
2023/12/13 08:10:34;;;;;;;11.30;6.60;;;;;;;;;;5065198;28;20515;-77
2023/12/13 08:13:02;;;;;;;10.07;6.47;;;;;;;;;;5063403;28;20459;-79
2023/12/13 08:15:32;;;;;;;9.83;5.63;;;;;;;;;;5067116;28;20455;-77
2023/12/13 08:18:00;;;;;;;8.50;5.67;;;;;;;;;;5062813;28;20456;-78
2023/12/13 08:20:34;;;;;;;11.57;6.73;;;;;;;;;;5057137;28;20454;-79
2023/12/13 08:23:06;;;;;;;11.87;6.43;;;;;;;;;;5060877;28;20461;-79
2023/12/13 08:25:42;;;;;;;8.80;5.90;;;;;;;;;;5053177;28;20864;-79
2023/12/13 08:31:38;;;;;;;9.07;5.90;;;;;;;;;;5055597;28;20450;-79
2023/12/13 08:34:08;;;;;;;9.37;6.53;;;;;;;;;;5058401;28;20461;-79
2023/12/13 08:36:58;;;;;;;7.87;5.63;;;;;;;;;;5064106;28;20459;-78
2023/12/13 08:39:34;;;;;;;7.30;6.23;;;;;;;;;;5054088;28;20455;-78
2023/12/13 08:42:03;;;;;;;8.20;6.10;;;;;;;;;;5059503;28;20468;-78
2023/12/13 08:44:33;;;;;;;10.27;6.13;;;;;;;;;;5067447;28;20456;-78
2023/12/13 08:47:01;;;;;;;12.27;7.37;;;;;;;;;;5066881;28;20480;-79
2023/12/13 08:49:29;;;;;;;7.90;5.47;;;;;;;;;;5064621;28;20456;-78
2023/12/13 08:51:57;;;;;;;8.13;5.80;;;;;;;;;;5064031;28;20505;-79
2023/12/13 08:54:24;;;;;;;9.43;5.57;;;;;;;;;;5059545;28;20657;-79
2023/12/13 08:56:54;;;;;;;8.00;5.10;;;;;;;;;;5063052;28;20420;-80
2023/12/13 08:59:23;;;;;;;11.07;7.30;;;;;;;;;;5066187;28;20583;-82
2023/12/13 09:01:51;;;;;;;11.90;7.13;;;;;;;;;;5066724;28;20483;-80
2023/12/13 09:04:20;;;;;;;8.13;6.53;;;;;;;;;;5052746;28;20571;-79
2023/12/13 09:06:50;;;;;;;9.77;6.73;;;;;;;;;;5049087;28;20476;-79
2023/12/13 09:09:31;;;;;;;8.73;6.27;;;;;;;;;;5047468;28;20475;-78
2023/12/13 09:12:00;;;;;;;10.03;6.10;;;;;;;;;;5048018;28;20487;-80
2023/12/13 09:14:28;;;;;;;8.70;6.53;;;;;;;;;;5047437;28;20457;-79
2023/12/13 09:16:56;;;;;;;10.97;6.50;;;;;;;;;;5040696;28;20469;-79
2023/12/13 09:19:27;;;;;;;8.40;5.40;;;;;;;;;;5038306;28;20848;-78
2023/12/13 09:21:55;;;;;;;9.33;6.10;;;;;;;;;;5042268;28;20484;-79
2023/12/13 09:24:22;;;;;;;8.37;5.83;;;;;;;;;;5039241;28;20463;-78
2023/12/13 09:26:50;;;;;;;8.30;5.37;;;;;;;;;;5039947;28;20574;-80
2023/12/13 09:29:20;;;;;;;8.87;5.87;;;;;;;;;;5037698;28;20481;-79
2023/12/13 09:31:47;;;;;;;8.67;5.27;;;;;;;;;;5042479;28;20482;-78
2023/12/13 09:34:15;;;;;;;11.50;6.93;;;;;;;;;;5043536;28;20459;-78
2023/12/13 09:36:43;;;;;;;11.80;6.93;;;;;;;;;;5038505;28;20480;-78
2023/12/13 09:39:15;;;;;;;8.53;5.80;;;;;;;;;;5041158;28;20446;-79
2023/12/13 09:41:45;;;;;;;8.77;5.03;;;;;;;;;;5037879;28;20498;-80
2023/12/13 09:44:15;;;;;;;7.80;5.30;;;;;;;;;;5040799;28;20456;-79
2023/12/13 09:46:44;;;;;;;8.90;5.60;;;;;;;;;;5046699;28;20488;-78
2023/12/13 09:49:11;;;;;;;12.37;7.20;;;;;;;;;;5047157;28;20690;-78
2023/12/13 09:51:39;;;;;;;7.60;4.47;;;;;;;;;;5047617;28;20444;-79
2023/12/13 09:54:08;;;;;;;8.77;5.53;;;;;;;;;;5049216;28;20460;-79
2023/12/13 09:56:35;;;;;;;5.93;4.70;;;;;;;;;;5048313;28;20467;-78
2023/12/13 09:59:06;;;;;;;7.77;4.40;;;;;;;;;;5048880;28;20564;-78
2023/12/13 10:01:35;;;;;;;9.73;6.60;;;;;;;;;;5050912;28;20495;-80
2023/12/13 10:04:06;;;;;;;7.10;4.60;;;;;;;;;;5050409;28;20437;-79
2023/12/13 10:06:34;;;;;;;6.53;5.40;;;;;;;;;;5050154;28;20451;-79
2023/12/13 10:09:03;;;;;;;7.07;4.10;;;;;;;;;;5048942;28;20458;-81
2023/12/13 10:11:31;;;;;;;5.97;3.93;;;;;;;;;;5050386;28;20528;-79
2023/12/13 10:13:59;;;;;;;15.97;12.23;;;;;;;;;;5049135;28;20461;-79
2023/12/13 10:16:28;;;;;;;6.90;4.60;;;;;;;;;;5041222;28;20792;-78
2023/12/13 10:18:56;;;;;;;7.37;5.13;;;;;;;;;;5043175;28;20453;-79
2023/12/13 10:21:29;;;;;;;8.13;4.80;;;;;;;;;;5041809;28;20538;-80
2023/12/13 10:23:57;;;;;;;8.00;5.40;;;;;;;;;;5041283;28;20461;-79
2023/12/13 10:26:24;;;;;;;8.20;4.73;;;;;;;;;;5044676;28;20465;-80
2023/12/13 10:28:52;;;;;;;7.40;4.17;;;;;;;;;;5044342;28;20499;-79
2023/12/13 10:31:23;;;;;;;7.03;4.93;;;;;;;;;;5045473;28;20955;-80
2023/12/13 10:33:50;;;;;;;7.80;5.00;;;;;;;;;;5044242;28;20449;-79
2023/12/13 10:36:19;;;;;;;7.40;3.97;;;;;;;;;;5046316;28;20876;-80
2023/12/13 10:38:49;;;;;;;10.33;4.30;;;;;;;;;;5047071;28;20930;-79
2023/12/13 10:41:17;;;;;;;7.80;4.93;;;;;;;;;;5048276;28;20456;-79
2023/12/13 10:43:46;;;;;;;7.70;4.33;;;;;;;;;;5046269;28;20479;-80
2023/12/13 10:46:14;;;;;;;7.45;5.40;;;;;;;;;;5043488;28;20465;-77
2023/12/13 10:48:42;;;;;;;6.73;4.40;;;;;;;;;;5046316;28;20225;-78
2023/12/13 10:51:10;;;;;;;7.40;5.03;;;;;;;;;;5044971;28;20529;-79
2023/12/13 10:53:38;;;;;;;6.97;4.67;;;;;;;;;;5044564;28;20461;-79
2023/12/13 10:56:07;;;;;;;6.10;4.30;;;;;;;;;;5049650;28;20500;-80
2023/12/13 10:58:36;;;;;;;9.47;5.03;;;;;;;;;;5062161;28;20462;-78
2023/12/13 11:01:04;;;;;;;6.60;4.40;;;;;;;;;;5062590;28;20755;-79
2023/12/13 11:03:36;;;;;;;6.20;4.53;;;;;;;;;;5066865;28;20647;-78
2023/12/13 11:06:10;;;;;;;11.03;5.07;;;;;;;;;;5063517;28;20463;-79
2023/12/13 11:08:41;;;;;;;5.97;4.17;;;;;;;;;;5062950;28;20757;-79
2023/12/13 11:11:13;;;;;;;7.60;3.83;;;;;;;;;;5061527;28;20514;-78
2023/12/13 11:13:47;;;;;;;8.13;4.67;;;;;;;;;;5061461;28;20451;-79
2023/12/13 11:16:16;;;;;;;7.37;4.60;;;;;;;;;;5063625;28;20463;-80
2023/12/13 11:18:47;;;;;;;7.50;5.00;;;;;;;;;;5062834;28;20457;-79
2023/12/13 11:21:22;;;;;;;6.30;4.50;;;;;;;;;;5062081;28;20489;-78
2023/12/13 11:23:50;;;;;;;10.40;4.97;;;;;;;;;;5063764;28;20452;-79
2023/12/13 11:26:22;;;;;;;11.80;7.70;;;;;;;;;;5062478;28;20504;-78
2023/12/13 11:28:51;;;;;;;7.80;4.40;;;;;;;;;;5062210;28;20690;-78
2023/12/13 11:31:22;;;;;;;5.57;3.57;;;;;;;;;;5064041;28;20555;-79
2023/12/13 11:33:51;;;;;;;9.40;7.07;;;;;;;;;;5064574;28;20448;-79
2023/12/13 11:36:22;;;;;;;5.83;4.40;;;;;;;;;;5064982;28;20450;-79
2023/12/13 11:38:50;;;;;;;5.57;4.13;;;;;;;;;;5064997;28;20447;-78
2023/12/13 11:41:20;;;;;;;6.50;3.93;;;;;;;;;;5064915;28;20458;-79
2023/12/13 11:43:47;;;;;;;8.17;5.60;;;;;;;;;;5063999;28;20925;-79
2023/12/13 11:46:20;;;;;;;7.53;5.07;;;;;;;;;;5066085;28;20521;-78
2023/12/13 11:48:48;;;;;;;5.73;4.20;;;;;;;;;;5061764;28;20475;-79
2023/12/13 11:51:17;;;;;;;6.90;4.53;;;;;;;;;;5059785;28;20459;-78
2023/12/13 11:53:48;;;;;;;9.80;5.07;;;;;;;;;;5062752;28;20459;-80
2023/12/13 11:56:18;;;;;;;5.87;4.10;;;;;;;;;;5059929;28;20452;-79
2023/12/13 11:58:51;;;;;;;8.80;4.97;;;;;;;;;;5058181;28;21028;-81
2023/12/13 12:01:20;;;;;;;9.00;4.57;;;;;;;;;;5061366;28;20479;-79
2023/12/13 12:03:48;;;;;;;12.53;4.83;;;;;;;;;;5059147;28;20549;-80
2023/12/13 12:06:16;;;;;;;7.67;4.83;;;;;;;;;;5059992;28;20451;-78
2023/12/13 12:08:44;;;;;;;9.17;4.80;;;;;;;;;;5057101;28;20455;-79
2023/12/13 12:11:14;;;;;;;7.30;5.47;;;;;;;;;;5059451;28;20492;-79
2023/12/13 12:13:47;;;;;;;7.53;5.20;;;;;;;;;;5061305;28;20443;-79
2023/12/13 12:16:22;;;;;;;8.27;5.07;;;;;;;;;;5059548;28;20474;-79
2023/12/13 12:18:50;;;;;;;9.33;5.87;;;;;;;;;;5061362;28;20455;-80
2023/12/13 12:21:18;;;;;;;7.67;4.83;;;;;;;;;;5058892;28;20510;-80
2023/12/13 12:23:46;;;;;;;7.20;4.30;;;;;;;;;;5059579;28;20575;-80
2023/12/13 12:26:14;;;;;;;10.10;5.47;;;;;;;;;;5058081;28;20480;-79
2023/12/13 12:28:45;;;;;;;10.07;7.03;;;;;;;;;;5058216;28;21015;-79
2023/12/13 12:31:18;;;;;;;6.97;4.63;;;;;;;;;;5060884;28;20484;-80
2023/12/13 12:33:59;;;;;;;8.03;4.60;;;;;;;;;;5057019;28;20480;-79
2023/12/13 12:36:29;;;;;;;9.67;5.20;;;;;;;;;;5058176;28;20555;-80
2023/12/13 12:38:57;;;;;;;8.30;5.00;;;;;;;;;;5057971;28;20455;-79
2023/12/13 12:41:27;;;;;;;9.80;4.17;;;;;;;;;;5058598;28;20515;-80
2023/12/13 12:43:55;;;;;;;6.63;4.10;;;;;;;;;;5057290;28;20491;-79
2023/12/13 12:46:22;;;;;;;7.23;3.87;;;;;;;;;;5057997;28;20974;-80
2023/12/13 12:48:50;;;;;;;6.00;4.00;;;;;;;;;;5058469;28;20456;-79
2023/12/13 12:51:18;;;;;;;9.20;4.47;;;;;;;;;;5060562;28;20505;-79
2023/12/13 12:53:47;;;;;;;6.47;4.20;;;;;;;;;;5066164;28;20863;-80
2023/12/13 12:56:15;;;;;;;8.10;4.20;;;;;;;;;;5065430;28;20448;-79
2023/12/13 12:58:42;;;;;;;7.40;4.10;;;;;;;;;;5063909;28;20480;-80
2023/12/13 13:01:11;;;;;;;8.97;5.63;;;;;;;;;;5063548;28;20800;-78
2023/12/13 13:03:39;;;;;;;13.47;7.10;;;;;;;;;;5063740;28;20569;-80
2023/12/13 13:06:07;;;;;;;7.27;4.30;;;;;;;;;;5062448;28;20863;-78
2023/12/13 13:08:37;;;;;;;5.63;3.73;;;;;;;;;;5062596;28;20533;-78
2023/12/13 13:11:05;;;;;;;6.23;3.80;;;;;;;;;;5060812;28;20473;-79
2023/12/13 13:13:33;;;;;;;6.90;3.87;;;;;;;;;;5061879;28;20487;-80
2023/12/13 13:16:00;;;;;;;6.63;4.10;;;;;;;;;;5061193;28;20450;-80
2023/12/13 13:18:34;;;;;;;4.87;3.23;;;;;;;;;;5061417;28;20478;-80
2023/12/13 13:21:02;;;;;;;6.37;3.33;;;;;;;;;;5063544;28;20460;-79
2023/12/13 13:23:31;;;;;;;8.77;4.97;;;;;;;;;;5061173;28;20582;-79
2023/12/13 13:26:03;;;;;;;5.60;3.50;;;;;;;;;;5060446;28;20461;-79
2023/12/13 13:28:31;;;;;;;6.47;3.63;;;;;;;;;;5057308;28;20467;-79
2023/12/13 13:30:59;;;;;;;10.07;4.67;;;;;;;;;;5065462;28;20554;-78
2023/12/13 13:33:31;;;;;;;7.10;3.87;;;;;;;;;;5064805;28;20748;-79
2023/12/13 13:35:59;;;;;;;4.80;3.40;;;;;;;;;;5055761;28;20546;-79
2023/12/13 13:38:27;;;;;;;10.77;4.90;;;;;;;;;;5055688;28;20462;-78
2023/12/13 13:41:02;;;;;;;5.90;3.90;;;;;;;;;;5067764;28;20470;-79
2023/12/13 13:43:53;;;;;;;5.40;3.03;;;;;;;;;;5068859;28;20559;-78
2023/12/13 13:46:22;;;;;;;6.20;4.13;;;;;;;;;;5063580;28;20451;-79
2023/12/13 13:48:52;;;;;;;6.27;4.47;;;;;;;;;;5065225;28;20570;-79
2023/12/13 13:51:21;;;;;;;5.90;3.20;;;;;;;;;;5065183;28;20526;-79
2023/12/13 13:53:48;;;;;;;7.10;3.90;;;;;;;;;;5066186;28;20451;-78
2023/12/13 13:56:16;;;;;;;7.80;4.23;;;;;;;;;;5066129;28;20451;-79
2023/12/13 13:58:46;;;;;;;5.63;3.43;;;;;;;;;;5065936;28;20506;-79
2023/12/13 14:01:14;;;;;;;6.60;3.40;;;;;;;;;;5063500;28;20448;-78
2023/12/13 14:03:42;;;;;;;8.50;5.30;;;;;;;;;;5064447;28;20499;-78
2023/12/13 14:06:10;;;;;;;7.83;3.83;;;;;;;;;;5064330;28;20448;-80
2023/12/13 14:08:38;;;;;;;8.40;4.03;;;;;;;;;;5066180;28;20487;-81
2023/12/13 14:11:05;;;;;;;7.87;4.17;;;;;;;;;;5067842;28;20479;-79
2023/12/13 14:13:33;;;;;;;5.63;3.70;;;;;;;;;;5068727;28;20453;-78
2023/12/13 14:16:03;;;;;;;11.37;4.17;;;;;;;;;;5068710;28;20487;-78
2023/12/13 14:18:30;;;;;;;6.40;3.47;;;;;;;;;;5069655;28;20489;-78
2023/12/13 14:20:58;;;;;;;6.27;3.47;;;;;;;;;;5056199;28;20465;-78
2023/12/13 14:23:26;;;;;;;5.60;3.60;;;;;;;;;;5063630;28;20482;-78
2023/12/13 14:25:53;;;;;;;7.40;3.53;;;;;;;;;;5048901;28;20457;-79
2023/12/13 14:28:22;;;;;;;6.33;3.33;;;;;;;;;;5048225;28;20461;-77
2023/12/13 14:30:50;;;;;;;4.70;2.80;;;;;;;;;;5046147;28;20472;-78
2023/12/13 14:33:20;;;;;;;4.87;2.53;;;;;;;;;;5047691;28;20598;-80
2023/12/13 14:35:49;;;;;;;7.97;5.13;;;;;;;;;;5059994;28;20489;-78
2023/12/13 14:38:16;;;;;;;4.00;2.70;;;;;;;;;;5066291;28;20458;-78
2023/12/13 14:40:47;;;;;;;5.97;2.97;;;;;;;;;;5067167;28;20463;-78
2023/12/13 14:43:20;;;;;;;4.30;2.50;;;;;;;;;;5062958;28;20490;-79
2023/12/13 14:45:50;;;;;;;8.00;5.67;;;;;;;;;;5057533;28;20492;-80
2023/12/13 14:48:23;;;;;;;5.27;2.50;;;;;;;;;;5043476;28;20545;-80